This is the latest recevied weather packets stored in our database for station/object IT9CNT. If no packets are shown the sender has not sent any weather packets the latest 1 day(s).
| Time | Temp. | Humidity | Pressure | Rain* | Wind** | Luminosity | Snow |
|---|---|---|---|---|---|---|---|
| 1778029623 | 16.11° C | 75% | 1011.6 hPa | 0 mm | 2.24 m/s, 83° | - | - |
| 1778029503 | 16.11° C | 75% | 1011.8 hPa | 0 mm | 2.68 m/s, 90° | - | - |
| 1778029443 | 16.11° C | 75% | 1011.8 hPa | 0 mm | 2.68 m/s, 88° | - | - |
| 1778029383 | 16.11° C | 75% | 1011.7 hPa | 0 mm | 2.68 m/s, 92° | - | - |
| 1778029323 | 16.11° C | 75% | 1011.7 hPa | 0 mm | 2.68 m/s, 89° | - | - |
| 1778029263 | 16.11° C | 75% | 1011.7 hPa | 0 mm | 2.68 m/s, 93° | - | - |
| 1778029203 | 16.11° C | 75% | 1011.6 hPa | 0 mm | 2.68 m/s, 92° | - | - |
| 1778029143 | 16.11° C | 75% | 1011.7 hPa | 0 mm | 2.68 m/s, 92° | - | - |
| 1778029083 | 16.11° C | 75% | 1011.7 hPa | 0 mm | 2.68 m/s, 96° | - | - |
| 1778029023 | 16.11° C | 75% | 1011.7 hPa | 0 mm | 3.13 m/s, 106° | - | - |
| 1778028963 | 16.11° C | 75% | 1011.8 hPa | 0 mm | 3.13 m/s, 108° | - | - |
| 1778028903 | 16.11° C | 75% | 1011.6 hPa | 0 mm | 3.13 m/s, 109° | - | - |
| 1778028843 | 16.11° C | 75% | 1011.7 hPa | 0 mm | 3.13 m/s, 111° | - | - |
| 1778028783 | 16.11° C | 75% | 1011.7 hPa | 0 mm | 3.13 m/s, 109° | - | - |
| 1778028723 | 16.11° C | 75% | 1011.5 hPa | 0 mm | 3.13 m/s, 107° | - | - |
| 1778028663 | 16.11° C | 75% | 1011.7 hPa | 0 mm | 3.13 m/s, 102° | - | - |
| 1778028603 | 16.11° C | 75% | 1012 hPa | 0 mm | 3.58 m/s, 106° | - | - |
| 1778028543 | 16.11° C | 75% | 1011.7 hPa | 0 mm | 3.13 m/s, 106° | - | - |
| 1778028483 | 16.11° C | 76% | 1011.7 hPa | 0 mm | 3.13 m/s, 104° | - | - |
| 1778028423 | 16.11° C | 76% | 1011.7 hPa | 0 mm | 3.13 m/s, 99° | - | - |
| 1778028363 | 16.11° C | 76% | 1011.8 hPa | 0 mm | 2.68 m/s, 98° | - | - |
| 1778028303 | 16.11° C | 76% | 1011.7 hPa | 0 mm | 2.24 m/s, 96° | - | - |
| 1778028243 | 16.67° C | 76% | 1011.7 hPa | 0 mm | 1.79 m/s, 92° | - | - |
| 1778028183 | 16.67° C | 76% | 1011.8 hPa | 0 mm | 1.34 m/s, 93° | - | - |
| 1778028123 | 16.67° C | 76% | 1011.7 hPa | 0 mm | 1.34 m/s, 95° | - | - |
* Rain latest hour (hover to see other rain measurements)
** Current wind speed in m/s (hover to see current wind gust speed)